createdAt,value
2023-04-15T00:01:19.838Z,12.80
2023-04-15T00:03:48.374Z,11.60
2023-04-15T00:06:16.344Z,11.40
2023-04-15T00:08:43.823Z,11.40
2023-04-15T00:11:12.553Z,12.40
2023-04-15T00:13:40.050Z,13.70
2023-04-15T00:16:09.082Z,12.30
2023-04-15T00:18:38.463Z,12.90
2023-04-15T00:21:06.181Z,13.00
2023-04-15T00:23:33.642Z,12.30
2023-04-15T00:26:01.620Z,14.60
2023-04-15T00:28:29.532Z,11.10
2023-04-15T00:30:57.539Z,11.90
2023-04-15T00:33:25.686Z,11.60
2023-04-15T00:35:53.622Z,13.10
2023-04-15T00:38:21.216Z,13.00
2023-04-15T00:40:48.759Z,12.50
2023-04-15T00:43:16.357Z,10.90
2023-04-15T00:45:43.832Z,11.30
2023-04-15T00:48:12.516Z,11.30
2023-04-15T00:50:40.002Z,14.40
2023-04-15T00:53:07.554Z,10.50
2023-04-15T00:55:36.273Z,11.80
2023-04-15T00:58:03.853Z,12.20
2023-04-15T01:00:31.584Z,12.30
2023-04-15T01:02:59.182Z,12.50
2023-04-15T01:05:28.142Z,13.80
2023-04-15T01:07:58.364Z,13.00
2023-04-15T01:10:25.886Z,12.20
2023-04-15T01:12:53.586Z,12.40
2023-04-15T01:15:21.856Z,11.70
2023-04-15T01:17:49.998Z,11.90
2023-04-15T01:20:17.808Z,12.80
2023-04-15T01:22:45.310Z,12.10
2023-04-15T01:25:31.646Z,10.80
2023-04-15T01:27:59.482Z,11.70
2023-04-15T01:30:27.154Z,16.70
2023-04-15T01:32:55.001Z,11.90
2023-04-15T01:35:23.929Z,10.40
2023-04-15T01:37:51.615Z,11.50
2023-04-15T01:40:19.201Z,11.60
2023-04-15T01:42:47.548Z,10.40
2023-04-15T01:45:15.386Z,11.50
2023-04-15T01:47:43.592Z,11.10
2023-04-15T01:50:11.382Z,10.50
2023-04-15T01:52:38.895Z,12.60
2023-04-15T01:55:08.507Z,11.10
2023-04-15T01:57:37.181Z,11.00
2023-04-15T02:00:07.590Z,12.00
2023-04-15T02:02:36.217Z,11.70
2023-04-15T02:05:05.608Z,11.10
2023-04-15T02:07:33.239Z,12.80
2023-04-15T02:10:01.288Z,12.30
2023-04-15T02:12:28.999Z,12.80
2023-04-15T02:14:56.684Z,11.50
2023-04-15T02:17:24.208Z,11.70
2023-04-15T02:19:52.155Z,11.10
2023-04-15T02:22:19.818Z,11.30
2023-04-15T02:24:47.457Z,11.40
2023-04-15T02:27:18.473Z,13.00
2023-04-15T02:29:46.618Z,12.80
2023-04-15T02:32:14.222Z,11.70
2023-04-15T02:34:42.673Z,11.10
2023-04-15T02:37:21.235Z,10.90
2023-04-15T02:40:10.360Z,13.80
2023-04-15T02:42:39.980Z,11.40
2023-04-15T02:45:08.102Z,11.50
2023-04-15T02:47:36.131Z,13.40
2023-04-15T02:50:04.522Z,11.10
2023-04-15T02:52:32.581Z,11.60
2023-04-15T02:55:02.688Z,12.60
2023-04-15T02:57:30.258Z,13.00
2023-04-15T02:59:57.730Z,12.20
2023-04-15T03:02:25.566Z,14.90
2023-04-15T03:04:54.826Z,14.70
2023-04-15T03:07:22.305Z,12.20
2023-04-15T03:09:49.921Z,11.50
2023-04-15T03:12:18.599Z,12.10
2023-04-15T03:14:46.614Z,12.70
2023-04-15T03:17:14.129Z,12.80
2023-04-15T03:19:43.914Z,13.30
2023-04-15T03:22:11.464Z,11.70
2023-04-15T03:24:39.107Z,12.50
2023-04-15T03:27:07.993Z,15.00
2023-04-15T03:29:35.603Z,13.20
2023-04-15T03:32:03.277Z,15.30
2023-04-15T03:34:30.854Z,14.90
2023-04-15T03:36:58.403Z,12.00
2023-04-15T03:39:26.050Z,11.90
2023-04-15T03:41:53.508Z,16.50
2023-04-15T03:44:21.314Z,12.20
2023-04-15T03:46:49.185Z,13.80
2023-04-15T03:49:17.254Z,13.70
2023-04-15T03:51:45.509Z,11.50
2023-04-15T03:54:15.201Z,12.00
2023-04-15T03:56:42.742Z,11.30
2023-04-15T03:59:11.318Z,12.60
2023-04-15T04:01:38.787Z,15.50
2023-04-15T04:04:06.629Z,11.80
2023-04-15T04:06:37.497Z,15.50
2023-04-15T04:09:05.051Z,12.80
2023-04-15T04:11:33.237Z,12.20
2023-04-15T04:14:01.863Z,14.80
2023-04-15T04:16:29.427Z,12.20
2023-04-15T04:18:58.331Z,12.80
2023-04-15T04:21:26.737Z,12.30
2023-04-15T04:23:58.198Z,13.10
2023-04-15T04:26:26.411Z,14.80
2023-04-15T04:28:53.903Z,13.10
2023-04-15T04:31:21.861Z,13.40
2023-04-15T04:33:49.354Z,14.80
2023-04-15T04:36:16.937Z,13.90
2023-04-15T04:38:44.538Z,12.50
2023-04-15T04:41:12.316Z,16.70
2023-04-15T04:43:39.804Z,12.70
2023-04-15T04:46:07.829Z,14.40
2023-04-15T04:48:35.750Z,12.10
2023-04-15T04:51:04.076Z,14.20
2023-04-15T04:53:31.860Z,13.60
2023-04-15T04:55:59.467Z,15.40
2023-04-15T04:58:27.587Z,15.00
2023-04-15T05:00:56.792Z,13.50
2023-04-15T05:03:24.637Z,13.80
2023-04-15T05:05:52.316Z,13.10
2023-04-15T05:08:19.803Z,11.90
2023-04-15T05:10:47.306Z,18.40
2023-04-15T05:13:14.817Z,16.90
2023-04-15T05:15:43.440Z,16.40
2023-04-15T05:18:11.122Z,20.10
2023-04-15T05:20:39.145Z,20.50
2023-04-15T05:23:06.912Z,26.60
2023-04-15T05:25:35.131Z,27.00
2023-04-15T05:28:02.643Z,17.10
2023-04-15T05:30:30.535Z,14.90
2023-04-15T05:32:58.162Z,15.30
2023-04-15T05:35:27.225Z,17.10
2023-04-15T05:37:54.906Z,14.70
2023-04-15T05:40:22.976Z,13.80
2023-04-15T05:42:51.077Z,15.30
2023-04-15T05:45:18.768Z,16.10
2023-04-15T05:47:46.824Z,14.30
2023-04-15T05:50:14.318Z,15.50
2023-04-15T05:52:41.838Z,15.70
2023-04-15T05:55:09.806Z,16.80
2023-04-15T05:57:37.611Z,19.50
2023-04-15T06:00:05.892Z,16.80
2023-04-15T06:02:33.583Z,15.60
2023-04-15T06:05:01.472Z,14.30
2023-04-15T06:07:29.171Z,15.80
2023-04-15T06:09:56.798Z,12.90
2023-04-15T06:12:24.304Z,14.80
2023-04-15T06:14:51.739Z,15.20
2023-04-15T06:17:20.328Z,17.80
2023-04-15T06:19:47.870Z,12.70
2023-04-15T06:22:15.778Z,15.60
2023-04-15T06:24:43.486Z,12.50
2023-04-15T06:27:10.961Z,14.60
2023-04-15T06:29:38.580Z,15.40
2023-04-15T06:32:07.164Z,15.40
2023-04-15T06:34:34.682Z,14.10
2023-04-15T06:37:03.383Z,15.40
2023-04-15T06:39:37.662Z,14.30
2023-04-15T06:42:05.208Z,14.70
2023-04-15T06:44:33.897Z,18.80
2023-04-15T06:47:02.094Z,17.10
2023-04-15T06:49:29.761Z,14.60
2023-04-15T06:51:57.587Z,13.90
2023-04-15T06:54:26.534Z,15.50
2023-04-15T06:56:54.101Z,17.30
2023-04-15T06:59:21.671Z,19.40
2023-04-15T07:01:49.274Z,26.60
2023-04-15T07:04:16.979Z,23.50
2023-04-15T07:06:45.039Z,22.30
2023-04-15T07:09:12.639Z,20.40
2023-04-15T07:11:40.265Z,18.10
2023-04-15T07:14:08.348Z,16.80
2023-04-15T07:16:36.000Z,18.80
2023-04-15T07:19:04.223Z,16.20
2023-04-15T07:21:32.342Z,13.90
2023-04-15T07:23:59.905Z,14.90
2023-04-15T07:26:27.457Z,18.30
2023-04-15T07:28:55.534Z,15.40
2023-04-15T07:31:23.143Z,18.30
2023-04-15T07:33:51.130Z,19.00
2023-04-15T07:36:18.752Z,16.60
2023-04-15T07:38:46.257Z,16.60
2023-04-15T07:41:14.285Z,14.90
2023-04-15T07:43:41.900Z,18.60
2023-04-15T07:46:09.471Z,17.70
2023-04-15T07:48:37.650Z,16.40
2023-04-15T07:51:06.272Z,18.20
2023-04-15T07:53:33.936Z,19.70
2023-04-15T07:56:01.591Z,37.70
2023-04-15T07:58:29.272Z,15.90
2023-04-15T08:00:57.025Z,15.00
2023-04-15T08:03:26.157Z,14.70
2023-04-15T08:05:54.482Z,17.40
2023-04-15T08:08:22.472Z,15.70
2023-04-15T08:10:52.672Z,23.30
2023-04-15T08:13:21.020Z,18.50
2023-04-15T08:16:14.573Z,16.50
2023-04-15T08:18:43.622Z,14.50
2023-04-15T08:21:11.849Z,18.60
2023-04-15T08:23:39.859Z,17.00
2023-04-15T08:26:09.385Z,19.40
2023-04-15T08:28:39.909Z,14.10
2023-04-15T08:31:09.295Z,20.20
2023-04-15T08:33:37.049Z,16.00
2023-04-15T08:36:05.955Z,13.20
2023-04-15T08:38:34.043Z,13.80
2023-04-15T08:41:07.483Z,14.50
2023-04-15T08:43:38.676Z,24.20
2023-04-15T08:46:06.936Z,15.30
2023-04-15T08:48:38.567Z,13.30
2023-04-15T08:51:07.024Z,13.50
2023-04-15T08:53:35.566Z,12.90
2023-04-15T08:56:10.254Z,17.10
2023-04-15T08:58:38.450Z,14.50
2023-04-15T09:01:06.331Z,14.20
2023-04-15T09:03:35.654Z,15.70
2023-04-15T09:06:06.232Z,18.40
2023-04-15T09:08:36.897Z,15.10
2023-04-15T09:11:04.558Z,17.10
2023-04-15T09:13:32.082Z,13.60
2023-04-15T09:16:04.367Z,13.00
2023-04-15T09:18:34.517Z,14.50
2023-04-15T09:21:19.552Z,12.60
2023-04-15T09:24:04.093Z,12.50
2023-04-15T09:26:36.681Z,14.60
2023-04-15T09:29:11.928Z,14.00
2023-04-15T09:31:40.675Z,13.40
2023-04-15T09:34:08.705Z,12.90
2023-04-15T09:36:54.142Z,14.70
2023-04-15T09:39:21.912Z,13.20
2023-04-15T09:42:06.975Z,14.50
2023-04-15T09:44:34.577Z,14.30
2023-04-15T09:47:02.186Z,19.10
2023-04-15T09:49:30.165Z,35.40
2023-04-15T09:52:06.044Z,23.80
2023-04-15T09:54:36.281Z,16.90
2023-04-15T09:57:08.962Z,18.70
2023-04-15T09:59:36.668Z,12.90
2023-04-15T10:02:06.773Z,13.70
2023-04-15T10:04:38.395Z,12.10
2023-04-15T10:07:07.554Z,13.70
2023-04-15T10:09:39.379Z,13.30
2023-04-15T10:12:07.407Z,15.00
2023-04-15T10:14:38.764Z,14.50
2023-04-15T10:17:08.238Z,14.40
2023-04-15T10:19:37.996Z,13.30
2023-04-15T10:22:07.356Z,15.10
2023-04-15T10:24:35.316Z,13.80
2023-04-15T10:27:07.021Z,13.00
2023-04-15T10:29:34.710Z,12.30
2023-04-15T10:32:03.502Z,12.00
2023-04-15T10:34:32.405Z,13.20
2023-04-15T10:37:04.458Z,13.30
2023-04-15T10:39:40.059Z,14.70
2023-04-15T10:42:08.524Z,13.40
2023-04-15T10:44:38.773Z,16.50
2023-04-15T10:47:15.436Z,16.00
2023-04-15T10:49:45.853Z,15.40
2023-04-15T10:52:16.724Z,15.20
2023-04-15T10:54:44.917Z,17.40
2023-04-15T10:57:34.692Z,19.90
2023-04-15T11:00:17.287Z,21.40
2023-04-15T11:02:48.096Z,21.90
2023-04-15T11:05:17.728Z,17.10
2023-04-15T11:07:51.383Z,33.10
2023-04-15T11:10:20.790Z,30.10
2023-04-15T11:12:57.726Z,28.30
2023-04-15T11:15:32.122Z,32.10
2023-04-15T11:18:19.928Z,37.40
2023-04-15T11:20:53.973Z,33.40
2023-04-15T11:23:38.539Z,20.20
2023-04-15T11:26:11.849Z,25.00
2023-04-15T11:28:41.586Z,19.50
2023-04-15T11:31:20.129Z,33.00
2023-04-15T11:33:59.169Z,13.30
2023-04-15T11:36:29.568Z,22.60
2023-04-15T11:38:59.434Z,22.70
2023-04-15T11:41:27.226Z,34.70
2023-04-15T11:43:54.701Z,16.20
2023-04-15T11:46:30.850Z,12.30
2023-04-15T11:48:58.424Z,183.90
2023-04-15T11:51:25.997Z,183.10
2023-04-15T11:53:54.726Z,14.90
2023-04-15T11:56:26.055Z,14.10
2023-04-15T11:58:56.952Z,19.00
2023-04-15T12:01:39.669Z,23.60
2023-04-15T12:04:22.558Z,13.60
2023-04-15T12:06:52.875Z,440.90
2023-04-15T12:09:21.862Z,94.30
2023-04-15T12:11:57.232Z,178.40
2023-04-15T12:14:30.141Z,126.30
2023-04-15T12:17:00.210Z,62.20
2023-04-15T12:19:39.127Z,30.90
2023-04-15T12:22:11.226Z,23.00
2023-04-15T12:24:40.643Z,16.00
2023-04-15T12:27:11.346Z,61.90
2023-04-15T12:29:41.694Z,361.80
2023-04-15T12:32:12.078Z,242.80
2023-04-15T12:34:41.862Z,43.10
2023-04-15T12:37:12.062Z,22.30
2023-04-15T12:39:43.272Z,14.40
2023-04-15T12:42:11.604Z,11.60
2023-04-15T12:44:40.226Z,10.90
2023-04-15T12:47:09.554Z,31.30
2023-04-15T12:49:37.704Z,300.20
2023-04-15T12:52:05.890Z,262.20
2023-04-15T12:54:33.627Z,322.50
2023-04-15T12:57:01.268Z,107.10
2023-04-15T12:59:29.008Z,478.00
2023-04-15T13:01:57.007Z,286.90
2023-04-15T13:04:24.908Z,20.80
2023-04-15T13:06:52.479Z,37.90
2023-04-15T13:09:20.128Z,23.10
2023-04-15T13:11:48.902Z,22.20
2023-04-15T13:14:16.903Z,15.00
2023-04-15T13:16:44.479Z,14.40
2023-04-15T13:19:12.187Z,14.00
2023-04-15T13:21:39.856Z,15.40
2023-04-15T13:24:08.005Z,447.10
2023-04-15T13:26:36.304Z,472.00
2023-04-15T13:29:03.968Z,528.00
2023-04-15T13:31:31.527Z,1665.50
2023-04-15T13:33:59.108Z,1841.40
2023-04-15T13:36:27.258Z,1626.30
2023-04-15T13:38:55.533Z,678.00
2023-04-15T13:41:23.041Z,741.60
2023-04-15T13:43:51.165Z,330.40
2023-04-15T13:46:19.050Z,48.40
2023-04-15T13:48:48.933Z,14.90
2023-04-15T13:51:16.526Z,15.10
2023-04-15T13:53:44.068Z,19.60
2023-04-15T13:56:13.031Z,12.80
2023-04-15T13:58:41.392Z,10.50
2023-04-15T14:01:09.287Z,329.60
2023-04-15T14:03:37.484Z,105.00
2023-04-15T14:06:08.503Z,124.50
2023-04-15T14:08:36.143Z,342.70
2023-04-15T14:11:03.727Z,30.80
2023-04-15T14:13:31.274Z,11.60
2023-04-15T14:15:58.998Z,29.40
2023-04-15T14:18:28.544Z,16.50
2023-04-15T14:20:56.864Z,12.10
2023-04-15T14:23:25.532Z,8.10
2023-04-15T14:25:54.410Z,8.30
2023-04-15T14:28:21.856Z,7.50
2023-04-15T14:30:50.014Z,7.50
2023-04-15T14:33:17.841Z,17.50
2023-04-15T14:35:46.180Z,12.30
2023-04-15T14:38:13.677Z,8.30
2023-04-15T14:40:41.459Z,8.10
2023-04-15T14:43:09.041Z,10.30
2023-04-15T14:45:39.505Z,14.80
2023-04-15T14:48:12.483Z,7.20
2023-04-15T14:50:40.557Z,9.70
2023-04-15T14:53:09.450Z,9.10
2023-04-15T14:55:36.991Z,140.90
2023-04-15T14:58:07.522Z,18.80
2023-04-15T15:00:39.179Z,9.00
2023-04-15T15:03:12.929Z,12.60
2023-04-15T15:05:46.448Z,9.70
2023-04-15T15:08:14.336Z,11.30
2023-04-15T15:10:48.511Z,8.80
2023-04-15T15:13:18.861Z,284.00
2023-04-15T15:15:46.603Z,52.50
2023-04-15T15:18:14.279Z,111.70
2023-04-15T15:20:42.009Z,12.60
2023-04-15T15:23:09.602Z,8.30
2023-04-15T15:25:37.250Z,8.80
2023-04-15T15:28:05.561Z,8.70
2023-04-15T15:30:33.088Z,7.30
2023-04-15T15:33:00.662Z,7.60
2023-04-15T15:35:28.215Z,36.20
2023-04-15T15:37:55.949Z,9.10
2023-04-15T15:40:23.677Z,8.30
2023-04-15T15:42:51.313Z,7.90
2023-04-15T15:45:18.975Z,7.40
2023-04-15T15:47:46.605Z,8.90
2023-04-15T15:50:14.561Z,7.10
2023-04-15T15:52:42.179Z,6.60
2023-04-15T15:55:10.023Z,14.10
2023-04-15T15:57:37.550Z,9.60
2023-04-15T16:00:12.063Z,6.50
2023-04-15T16:03:05.101Z,6.70
2023-04-15T16:05:28.099Z,7.70
2023-04-15T16:07:55.637Z,8.30
2023-04-15T16:10:23.324Z,16.50
2023-04-15T16:12:53.470Z,9.50
2023-04-15T16:15:23.879Z,9.30
2023-04-15T16:17:51.663Z,7.80
2023-04-15T16:20:19.344Z,7.00
2023-04-15T16:22:46.941Z,6.40
2023-04-15T16:25:14.457Z,5.90
2023-04-15T16:27:54.647Z,6.50
2023-04-15T16:30:27.160Z,7.00
2023-04-15T16:32:55.008Z,7.70
2023-04-15T16:35:23.890Z,7.00
2023-04-15T16:37:51.437Z,7.10
2023-04-15T16:40:20.286Z,6.50
2023-04-15T16:42:47.991Z,6.50
2023-04-15T16:45:15.745Z,7.70
2023-04-15T16:47:43.300Z,8.30
2023-04-15T16:50:11.026Z,6.50
2023-04-15T16:52:38.540Z,7.50
2023-04-15T16:55:06.825Z,7.00
2023-04-15T16:57:50.818Z,6.40
2023-04-15T17:00:22.675Z,8.30
2023-04-15T17:02:50.574Z,9.00
2023-04-15T17:05:18.586Z,7.50
2023-04-15T17:07:46.343Z,7.90
2023-04-15T17:10:13.900Z,7.10
2023-04-15T17:12:41.688Z,8.80
2023-04-15T17:15:09.825Z,6.80
2023-04-15T17:17:37.424Z,8.20
2023-04-15T17:20:06.725Z,7.30
2023-04-15T17:22:34.631Z,6.70
2023-04-15T17:25:03.134Z,7.00
2023-04-15T17:27:31.220Z,7.00
2023-04-15T17:29:58.818Z,15.10
2023-04-15T17:32:31.782Z,7.20
2023-04-15T17:35:06.424Z,8.00
2023-04-15T17:37:35.833Z,7.60
2023-04-15T17:40:05.296Z,7.00
2023-04-15T17:42:34.353Z,8.20
2023-04-15T17:45:02.337Z,8.70
2023-04-15T17:47:30.222Z,7.50
2023-04-15T17:49:58.044Z,6.80
2023-04-15T17:52:25.962Z,6.70
2023-04-15T17:54:53.692Z,8.50
2023-04-15T17:57:21.397Z,7.80
2023-04-15T17:59:49.444Z,8.50
2023-04-15T18:02:17.757Z,7.50
2023-04-15T18:04:45.940Z,10.60
2023-04-15T18:07:15.699Z,7.70
2023-04-15T18:09:44.341Z,7.10
2023-04-15T18:12:12.189Z,8.60
2023-04-15T18:14:39.968Z,8.80
2023-04-15T18:17:08.064Z,8.80
2023-04-15T18:19:36.187Z,7.10
2023-04-15T18:22:03.942Z,7.80
2023-04-15T18:24:32.116Z,8.10
2023-04-15T18:27:00.388Z,6.10
2023-04-15T18:29:28.534Z,6.10
2023-04-15T18:31:58.935Z,8.40
2023-04-15T18:34:27.382Z,6.20
2023-04-15T18:36:58.821Z,6.50
2023-04-15T18:39:27.848Z,6.70
2023-04-15T18:41:57.337Z,6.20
2023-04-15T18:44:25.750Z,16.90
2023-04-15T18:46:53.456Z,6.90
2023-04-15T18:49:21.299Z,6.30
2023-04-15T18:51:49.301Z,6.60
2023-04-15T18:54:16.962Z,7.10
2023-04-15T18:56:45.064Z,9.20
2023-04-15T18:59:29.303Z,7.20
2023-04-15T19:02:00.231Z,12.60
2023-04-15T19:04:31.153Z,6.90
2023-04-15T19:06:59.236Z,7.20
2023-04-15T19:09:28.882Z,6.30
2023-04-15T19:11:56.973Z,7.40
2023-04-15T19:14:24.886Z,6.70
2023-04-15T19:16:54.110Z,7.90
2023-04-15T19:19:21.956Z,8.30
2023-04-15T19:21:50.538Z,6.50
2023-04-15T19:24:19.622Z,6.40
2023-04-15T19:26:50.175Z,6.30
2023-04-15T19:29:18.504Z,8.80
2023-04-15T19:31:46.253Z,8.40
2023-04-15T19:34:14.073Z,7.40
2023-04-15T19:36:43.008Z,8.80
2023-04-15T19:39:11.340Z,10.70
2023-04-15T19:41:39.361Z,8.20
2023-04-15T19:44:06.972Z,9.20
2023-04-15T19:46:35.472Z,10.90
2023-04-15T19:49:03.497Z,9.90
2023-04-15T19:51:31.745Z,8.90
2023-04-15T19:53:59.633Z,8.40
2023-04-15T19:56:27.466Z,8.60
2023-04-15T19:58:55.238Z,13.20
2023-04-15T20:01:23.295Z,10.40
2023-04-15T20:03:54.976Z,11.30
2023-04-15T20:06:23.039Z,11.90
2023-04-15T20:08:51.700Z,8.60
2023-04-15T20:11:19.382Z,8.90
2023-04-15T20:13:47.032Z,8.80
2023-04-15T20:16:14.875Z,8.00
2023-04-15T20:18:42.608Z,8.10
2023-04-15T20:21:10.376Z,7.10
2023-04-15T20:23:38.767Z,8.70
2023-04-15T20:26:07.368Z,9.60
2023-04-15T20:28:34.967Z,9.10
2023-04-15T20:31:03.319Z,7.60
2023-04-15T20:33:31.413Z,10.20
2023-04-15T20:35:59.676Z,8.00
2023-04-15T20:38:27.321Z,6.80
2023-04-15T20:40:55.019Z,8.10
2023-04-15T20:43:23.021Z,9.00
2023-04-15T20:45:51.551Z,5.90
2023-04-15T20:48:19.239Z,6.50
2023-04-15T20:50:47.090Z,7.60
2023-04-15T20:53:15.484Z,9.30
2023-04-15T20:55:45.025Z,6.90
2023-04-15T20:58:13.048Z,7.30
2023-04-15T21:00:40.917Z,7.00
2023-04-15T21:03:08.851Z,7.20
2023-04-15T21:05:36.670Z,7.10
2023-04-15T21:08:04.437Z,6.80
2023-04-15T21:10:35.491Z,10.00
2023-04-15T21:13:03.199Z,7.90
2023-04-15T21:15:30.930Z,14.90
2023-04-15T21:17:58.827Z,8.50
2023-04-15T21:20:27.060Z,7.80
2023-04-15T21:22:54.784Z,7.80
2023-04-15T21:25:22.755Z,7.10
2023-04-15T21:27:50.655Z,9.00
2023-04-15T21:30:18.307Z,9.00
2023-04-15T21:32:46.013Z,7.50
2023-04-15T21:35:13.645Z,7.50
2023-04-15T21:37:41.193Z,11.20
2023-04-15T21:40:09.227Z,8.10
2023-04-15T21:42:36.949Z,7.90
2023-04-15T21:45:04.824Z,8.10
2023-04-15T21:47:32.446Z,7.50
2023-04-15T21:50:20.192Z,8.20
2023-04-15T21:52:47.787Z,10.00
2023-04-15T21:55:15.530Z,7.30
2023-04-15T21:57:43.324Z,7.10
2023-04-15T22:00:11.922Z,10.00
2023-04-15T22:02:42.576Z,8.90
2023-04-15T22:05:10.288Z,8.20
2023-04-15T22:07:37.948Z,7.40
2023-04-15T22:10:06.363Z,10.60
2023-04-15T22:12:34.018Z,9.30
2023-04-15T22:15:02.850Z,9.90
2023-04-15T22:17:30.867Z,8.10
2023-04-15T22:19:58.523Z,9.60
2023-04-15T22:22:26.809Z,8.00
2023-04-15T22:25:12.449Z,9.30
2023-04-15T22:27:40.155Z,8.70
2023-04-15T22:30:08.585Z,9.60
2023-04-15T22:32:36.595Z,8.00
2023-04-15T22:35:06.468Z,7.70
2023-04-15T22:37:34.137Z,9.50
2023-04-15T22:40:02.944Z,8.20
2023-04-15T22:42:30.727Z,8.90
2023-04-15T22:44:58.298Z,9.20
2023-04-15T22:47:25.899Z,10.60
2023-04-15T22:49:53.784Z,9.30
2023-04-15T22:52:29.854Z,9.30
2023-04-15T22:54:58.556Z,9.40
2023-04-15T22:57:27.900Z,9.50
2023-04-15T22:59:55.951Z,9.00
2023-04-15T23:02:23.867Z,8.40
2023-04-15T23:04:51.957Z,8.60
2023-04-15T23:07:19.615Z,9.40
2023-04-15T23:09:47.476Z,8.60
2023-04-15T23:12:14.983Z,11.30
2023-04-15T23:14:42.504Z,9.30
2023-04-15T23:17:10.336Z,7.90
2023-04-15T23:19:38.016Z,16.20
2023-04-15T23:22:07.453Z,9.50
2023-04-15T23:24:34.920Z,8.40
2023-04-15T23:27:02.668Z,8.80
2023-04-15T23:29:30.338Z,9.20
2023-04-15T23:31:58.229Z,9.30
2023-04-15T23:34:26.311Z,9.30
2023-04-15T23:36:53.894Z,9.60
2023-04-15T23:39:21.608Z,12.10
2023-04-15T23:41:49.357Z,8.00
2023-04-15T23:44:17.113Z,9.00
2023-04-15T23:46:44.614Z,8.70
2023-04-15T23:49:12.591Z,8.00
2023-04-15T23:51:40.811Z,8.70
2023-04-15T23:54:08.770Z,12.40
2023-04-15T23:56:36.678Z,28.50
2023-04-15T23:59:04.297Z,11.10
